createdAt,value
2023-08-13T00:00:17.765Z,100579.75
2023-08-13T00:03:10.475Z,100583.15
2023-08-13T00:05:43.034Z,100588.05
2023-08-13T00:08:15.591Z,100592.05
2023-08-13T00:10:48.155Z,100595.69
2023-08-13T00:13:20.546Z,100592.48
2023-08-13T00:15:52.730Z,100589.08
2023-08-13T00:18:24.913Z,100590.75
2023-08-13T00:20:56.971Z,100583.54
2023-08-13T00:23:29.753Z,100582.58
2023-08-13T00:26:02.179Z,100587.14
2023-08-13T00:28:34.947Z,100590.52
2023-08-13T00:31:07.272Z,100568.30
2023-08-13T00:33:39.663Z,100587.17
2023-08-13T00:36:12.166Z,100593.91
2023-08-13T00:38:44.970Z,100596.61
2023-08-13T00:41:17.229Z,100603.27
2023-08-13T00:43:50.891Z,100597.39
2023-08-13T00:46:23.696Z,100602.48
2023-08-13T00:49:00.041Z,100592.13
2023-08-13T00:51:33.291Z,100603.27
2023-08-13T00:54:06.324Z,100604.31
2023-08-13T00:56:39.233Z,100605.85
2023-08-13T00:59:12.352Z,100605.77
2023-08-13T01:01:45.734Z,100593.56
2023-08-13T01:04:18.266Z,100605.26
2023-08-13T01:07:04.429Z,100605.77
2023-08-13T01:09:45.865Z,100605.49
2023-08-13T01:12:24.795Z,100606.10
2023-08-13T01:15:07.556Z,100606.52
2023-08-13T01:17:42.068Z,100606.09
2023-08-13T01:20:15.636Z,100610.66
2023-08-13T01:22:50.946Z,100610.90
2023-08-13T01:25:26.391Z,100611.48
2023-08-13T01:28:04.254Z,100606.30
2023-08-13T01:30:40.709Z,100615.81
2023-08-13T01:33:14.898Z,100619.66
2023-08-13T01:35:49.221Z,100615.88
2023-08-13T01:38:22.962Z,100620.95
2023-08-13T01:40:55.789Z,100623.48
2023-08-13T01:43:28.674Z,100625.80
2023-08-13T01:46:02.947Z,100625.06
2023-08-13T01:48:35.381Z,100627.91
2023-08-13T01:51:08.015Z,100617.05
2023-08-13T01:53:40.802Z,100627.57
2023-08-13T01:56:12.961Z,100627.30
2023-08-13T01:58:45.296Z,100630.52
2023-08-13T02:01:17.504Z,100629.60
2023-08-13T02:03:50.104Z,100630.98
2023-08-13T02:06:23.744Z,100633.84
2023-08-13T02:08:56.095Z,100636.30
2023-08-13T02:11:28.612Z,100639.46
2023-08-13T02:14:02.197Z,100640.05
2023-08-13T02:16:34.681Z,100646.02
2023-08-13T02:19:07.610Z,100645.80
2023-08-13T02:21:39.600Z,100647.36
2023-08-13T02:24:12.178Z,100642.84
2023-08-13T02:26:44.660Z,100640.81
2023-08-13T02:29:16.897Z,100641.97
2023-08-13T02:31:49.241Z,100643.06
2023-08-13T02:34:21.563Z,100635.70
2023-08-13T02:36:54.199Z,100652.35
2023-08-13T02:39:26.483Z,100653.97
2023-08-13T02:41:59.001Z,100660.40
2023-08-13T02:44:31.285Z,100663.36
2023-08-13T02:47:03.365Z,100665.70
2023-08-13T02:49:35.509Z,100663.63
2023-08-13T02:52:08.305Z,100664.52
2023-08-13T02:54:40.404Z,100664.89
2023-08-13T02:57:12.530Z,100667.41
2023-08-13T02:59:44.745Z,100672.62
2023-08-13T03:02:18.160Z,100675.50
2023-08-13T03:04:50.419Z,100674.45
2023-08-13T03:07:22.722Z,100673.02
2023-08-13T03:09:54.941Z,100676.77
2023-08-13T03:12:27.488Z,100683.36
2023-08-13T03:14:59.832Z,100683.05
2023-08-13T03:17:32.172Z,100679.23
2023-08-13T03:20:04.983Z,100686.59
2023-08-13T03:22:38.448Z,100683.84
2023-08-13T03:25:11.506Z,100682.41
2023-08-13T03:27:43.754Z,100690.15
2023-08-13T03:30:19.521Z,100689.20
2023-08-13T03:32:52.631Z,100690.68
2023-08-13T03:35:25.464Z,100690.90
2023-08-13T03:37:57.769Z,100685.15
2023-08-13T03:40:30.446Z,100687.34
2023-08-13T03:43:03.137Z,100696.08
2023-08-13T03:45:35.855Z,100696.15
2023-08-13T03:48:08.848Z,100700.02
2023-08-13T03:50:45.251Z,100699.32
2023-08-13T03:53:23.502Z,100697.75
2023-08-13T03:55:56.072Z,100701.59
2023-08-13T03:58:28.792Z,100708.50
2023-08-13T04:01:07.578Z,100707.61
2023-08-13T04:03:40.810Z,100706.77
2023-08-13T04:06:12.885Z,100708.00
2023-08-13T04:08:45.442Z,100711.24
2023-08-13T04:11:18.082Z,100712.87
2023-08-13T04:13:50.646Z,100714.09
2023-08-13T04:16:23.492Z,100717.83
2023-08-13T04:18:55.902Z,100720.77
2023-08-13T04:21:29.226Z,100719.65
2023-08-13T04:24:01.510Z,100719.67
2023-08-13T04:26:33.962Z,100721.23
2023-08-13T04:29:06.446Z,100724.45
2023-08-13T04:31:38.840Z,100726.70
2023-08-13T04:34:11.056Z,100721.70
2023-08-13T04:36:43.359Z,100731.45
2023-08-13T04:39:17.173Z,100713.39
2023-08-13T04:41:49.648Z,100727.16
2023-08-13T04:44:23.877Z,100728.75
2023-08-13T04:46:56.253Z,100735.27
2023-08-13T04:49:29.082Z,100718.77
2023-08-13T04:52:01.425Z,100741.52
2023-08-13T04:54:33.926Z,100744.22
2023-08-13T04:57:06.229Z,100742.27
2023-08-13T04:59:38.815Z,100742.66
2023-08-13T05:02:11.436Z,100749.27
2023-08-13T05:04:44.238Z,100753.96
2023-08-13T05:07:16.674Z,100758.30
2023-08-13T05:09:49.321Z,100755.77
2023-08-13T05:12:21.595Z,100760.91
2023-08-13T05:14:54.376Z,100763.52
2023-08-13T05:17:27.451Z,100769.52
2023-08-13T05:19:59.764Z,100768.79
2023-08-13T05:22:32.173Z,100769.53
2023-08-13T05:25:04.837Z,100772.27
2023-08-13T05:27:37.150Z,100775.62
2023-08-13T05:30:11.395Z,100771.26
2023-08-13T05:32:44.392Z,100773.71
2023-08-13T05:35:16.988Z,100772.91
2023-08-13T05:37:49.382Z,100776.71
2023-08-13T05:40:21.842Z,100779.11
2023-08-13T05:42:54.268Z,100775.72
2023-08-13T05:45:26.840Z,100783.12
2023-08-13T05:47:59.503Z,100779.86
2023-08-13T05:50:35.186Z,100783.20
2023-08-13T05:53:08.011Z,100787.55
2023-08-13T05:55:40.813Z,100774.24
2023-08-13T05:58:13.012Z,100790.27
2023-08-13T06:00:45.578Z,100786.87
2023-08-13T06:03:17.795Z,100789.50
2023-08-13T06:05:50.728Z,100779.60
2023-08-13T06:08:22.955Z,100794.52
2023-08-13T06:10:55.787Z,100795.80
2023-08-13T06:13:28.067Z,100802.52
2023-08-13T06:16:00.628Z,100810.04
2023-08-13T06:18:32.940Z,100809.23
2023-08-13T06:21:05.991Z,100816.00
2023-08-13T06:23:40.084Z,100819.67
2023-08-13T06:26:12.738Z,100820.18
2023-08-13T06:28:45.320Z,100826.77
2023-08-13T06:31:32.902Z,100823.48
2023-08-13T06:34:10.178Z,100826.59
2023-08-13T06:36:42.486Z,100831.49
2023-08-13T06:39:14.682Z,100828.64
2023-08-13T06:41:47.033Z,100837.72
2023-08-13T06:44:22.180Z,100840.33
2023-08-13T06:46:54.808Z,100838.52
2023-08-13T06:49:26.974Z,100817.00
2023-08-13T06:51:59.375Z,100842.30
2023-08-13T06:54:31.560Z,100848.08
2023-08-13T06:57:04.030Z,100845.58
2023-08-13T06:59:36.168Z,100858.99
2023-08-13T07:02:08.384Z,100856.84
2023-08-13T07:04:40.762Z,100869.43
2023-08-13T07:07:13.178Z,100852.98
2023-08-13T07:09:45.495Z,100865.74
2023-08-13T07:12:18.204Z,100871.70
2023-08-13T07:14:50.727Z,100871.79
2023-08-13T07:17:23.552Z,100860.61
2023-08-13T07:19:55.752Z,100877.33
2023-08-13T07:22:27.819Z,100880.89
2023-08-13T07:25:00.732Z,100884.23
2023-08-13T07:27:33.436Z,100880.79
2023-08-13T07:30:06.731Z,100874.79
2023-08-13T07:32:40.149Z,100877.82
2023-08-13T07:35:13.648Z,100878.92
2023-08-13T07:37:46.082Z,100878.52
2023-08-13T07:40:18.332Z,100879.27
2023-08-13T07:42:50.773Z,100882.56
2023-08-13T07:45:23.543Z,100878.60
2023-08-13T07:47:56.290Z,100882.11
2023-08-13T07:50:29.446Z,100887.49
2023-08-13T07:53:01.621Z,100885.91
2023-08-13T07:55:34.052Z,100885.66
2023-08-13T07:58:06.559Z,100886.89
2023-08-13T08:00:38.938Z,100888.46
2023-08-13T08:03:14.756Z,100894.89
2023-08-13T08:05:51.369Z,100891.92
2023-08-13T08:08:26.094Z,100894.09
2023-08-13T08:10:58.295Z,100907.08
2023-08-13T08:13:33.318Z,100898.58
2023-08-13T08:16:07.037Z,100915.52
2023-08-13T08:18:43.969Z,100918.96
2023-08-13T08:21:17.310Z,100918.32
2023-08-13T08:23:50.715Z,100917.05
2023-08-13T08:26:23.824Z,100919.78
2023-08-13T08:28:56.908Z,100912.95
2023-08-13T08:31:29.671Z,100913.23
2023-08-13T08:34:02.277Z,100918.95
2023-08-13T08:36:37.710Z,100919.67
2023-08-13T08:39:11.097Z,100920.77
2023-08-13T08:41:48.867Z,100924.73
2023-08-13T08:44:23.592Z,100920.36
2023-08-13T08:46:59.531Z,100909.16
2023-08-13T08:49:34.516Z,100925.98
2023-08-13T08:52:09.087Z,100920.59
2023-08-13T08:54:43.297Z,100918.81
2023-08-13T08:57:16.296Z,100914.63
2023-08-13T08:59:50.374Z,100912.52
2023-08-13T09:02:25.087Z,100912.48
2023-08-13T09:04:59.260Z,100915.56
2023-08-13T09:07:35.595Z,100917.77
2023-08-13T09:10:09.480Z,100902.54
2023-08-13T09:12:44.158Z,100918.98
2023-08-13T09:15:17.319Z,100922.51
2023-08-13T09:17:51.305Z,100924.18
2023-08-13T09:20:25.416Z,100926.55
2023-08-13T09:23:02.794Z,100926.93
2023-08-13T09:25:35.851Z,100922.54
2023-08-13T09:28:09.680Z,100922.70
2023-08-13T09:30:42.496Z,100931.40
2023-08-13T09:33:18.257Z,100925.27
2023-08-13T09:35:51.303Z,100927.54
2023-08-13T09:38:25.474Z,100925.11
2023-08-13T09:40:59.066Z,100926.93
2023-08-13T09:43:33.867Z,100923.68
2023-08-13T09:46:10.229Z,100926.16
2023-08-13T09:48:48.691Z,100918.43
2023-08-13T09:51:37.039Z,100916.32
2023-08-13T09:54:17.003Z,100911.13
2023-08-13T09:56:56.305Z,100926.19
2023-08-13T09:59:30.266Z,100931.63
2023-08-13T10:02:07.016Z,100934.42
2023-08-13T10:04:41.317Z,100919.19
2023-08-13T10:07:15.196Z,100934.52
2023-08-13T10:09:58.949Z,100937.23
2023-08-13T10:12:39.478Z,100934.91
2023-08-13T10:15:12.730Z,100934.02
2023-08-13T10:17:48.238Z,100930.34
2023-08-13T10:20:22.466Z,100935.17
2023-08-13T10:22:55.858Z,100939.36
2023-08-13T10:25:31.208Z,100932.30
2023-08-13T10:28:21.154Z,100935.38
2023-08-13T10:31:13.513Z,100933.58
2023-08-13T10:33:46.679Z,100938.17
2023-08-13T10:36:20.343Z,100930.14
2023-08-13T10:38:52.729Z,100928.10
2023-08-13T10:41:36.436Z,100932.40
2023-08-13T10:44:32.326Z,100935.61
2023-08-13T10:47:05.814Z,100933.55
2023-08-13T10:49:42.716Z,100929.73
2023-08-13T10:52:17.316Z,100929.96
2023-08-13T10:54:50.580Z,100935.05
2023-08-13T10:57:30.589Z,100940.02
2023-08-13T11:00:04.199Z,100938.23
2023-08-13T11:02:36.606Z,100941.39
2023-08-13T11:05:09.652Z,100945.71
2023-08-13T11:07:44.823Z,100947.66
2023-08-13T11:10:20.666Z,100940.42
2023-08-13T11:12:53.404Z,100944.40
2023-08-13T11:15:29.697Z,100938.42
2023-08-13T11:18:02.252Z,100938.23
2023-08-13T11:20:35.633Z,100941.61
2023-08-13T11:23:11.161Z,100937.31
2023-08-13T11:25:44.000Z,100933.05
2023-08-13T11:28:21.559Z,100922.27
2023-08-13T11:30:55.250Z,100924.95
2023-08-13T11:33:30.530Z,100936.45
2023-08-13T11:36:03.118Z,100934.61
2023-08-13T11:38:35.765Z,100928.08
2023-08-13T11:41:15.564Z,100933.17
2023-08-13T11:43:56.260Z,100932.15
2023-08-13T11:46:28.800Z,100915.99
2023-08-13T11:49:04.538Z,100927.23
2023-08-13T11:51:43.312Z,100927.88
2023-08-13T11:54:15.698Z,100929.34
2023-08-13T11:56:49.997Z,100926.14
2023-08-13T11:59:31.332Z,100925.02
2023-08-13T12:02:04.496Z,100938.42
2023-08-13T12:04:38.124Z,100935.04
2023-08-13T12:07:12.891Z,100937.59
2023-08-13T12:09:45.086Z,100935.30
2023-08-13T12:12:17.630Z,100933.45
2023-08-13T12:14:51.494Z,100925.58
2023-08-13T12:17:25.928Z,100917.52
2023-08-13T12:19:58.266Z,100920.52
2023-08-13T12:22:30.636Z,100918.89
2023-08-13T12:25:03.189Z,100918.69
2023-08-13T12:27:35.778Z,100910.25
2023-08-13T12:30:09.822Z,100918.08
2023-08-13T12:32:42.427Z,100916.20
2023-08-13T12:35:14.728Z,100924.04
2023-08-13T12:37:48.527Z,100922.23
2023-08-13T12:40:20.820Z,100907.45
2023-08-13T12:42:53.223Z,100920.41
2023-08-13T12:45:25.573Z,100918.98
2023-08-13T12:47:58.000Z,100912.88
2023-08-13T12:50:30.555Z,100911.48
2023-08-13T12:53:06.310Z,100919.17
2023-08-13T12:55:39.117Z,100914.42
2023-08-13T12:58:12.686Z,100915.47
2023-08-13T13:00:45.613Z,100912.32
2023-08-13T13:03:17.765Z,100905.80
2023-08-13T13:05:50.523Z,100889.67
2023-08-13T13:08:22.752Z,100906.48
2023-08-13T13:10:55.058Z,100908.27
2023-08-13T13:13:29.528Z,100903.97
2023-08-13T13:16:01.895Z,100900.05
2023-08-13T13:18:34.221Z,100903.39
2023-08-13T13:21:06.820Z,100906.36
2023-08-13T13:23:42.839Z,100902.57
2023-08-13T13:26:17.816Z,100901.79
2023-08-13T13:28:51.568Z,100899.82
2023-08-13T13:31:23.707Z,100895.14
2023-08-13T13:33:56.100Z,100900.27
2023-08-13T13:36:28.421Z,100896.47
2023-08-13T13:39:00.722Z,100896.73
2023-08-13T13:41:33.235Z,100894.23
2023-08-13T13:44:07.049Z,100894.05
2023-08-13T13:46:39.317Z,100896.41
2023-08-13T13:49:12.125Z,100892.27
2023-08-13T13:51:45.036Z,100887.66
2023-08-13T13:54:17.573Z,100884.36
2023-08-13T13:56:49.964Z,100882.42
2023-08-13T13:59:22.395Z,100876.81
2023-08-13T14:01:54.795Z,100868.90
2023-08-13T14:04:28.190Z,100882.22
2023-08-13T14:07:00.749Z,100876.87
2023-08-13T14:09:33.129Z,100873.87
2023-08-13T14:12:05.649Z,100873.61
2023-08-13T14:14:38.129Z,100874.40
2023-08-13T14:17:10.426Z,100872.25
2023-08-13T14:19:44.068Z,100869.72
2023-08-13T14:22:17.162Z,100862.96
2023-08-13T14:24:49.682Z,100852.77
2023-08-13T14:27:24.127Z,100857.20
2023-08-13T14:29:58.797Z,100859.91
2023-08-13T14:32:31.288Z,100855.17
2023-08-13T14:35:03.641Z,100845.38
2023-08-13T14:37:35.895Z,100856.41
2023-08-13T14:40:10.032Z,100854.41
2023-08-13T14:42:42.301Z,100851.70
2023-08-13T14:45:15.282Z,100853.95
2023-08-13T14:47:47.629Z,100850.21
2023-08-13T14:50:20.897Z,100850.53
2023-08-13T14:52:53.012Z,100848.24
2023-08-13T14:55:25.364Z,100844.86
2023-08-13T14:57:57.975Z,100845.45
2023-08-13T15:00:30.699Z,100845.01
2023-08-13T15:03:03.441Z,100844.14
2023-08-13T15:05:36.715Z,100843.64
2023-08-13T15:08:09.133Z,100842.54
2023-08-13T15:10:41.399Z,100839.54
2023-08-13T15:13:17.548Z,100831.09
2023-08-13T15:15:50.133Z,100839.69
2023-08-13T15:18:22.489Z,100831.92
2023-08-13T15:20:56.687Z,100820.21
2023-08-13T15:23:29.142Z,100832.87
2023-08-13T15:26:01.985Z,100833.88
2023-08-13T15:28:37.167Z,100832.33
2023-08-13T15:31:11.073Z,100831.69
2023-08-13T15:33:43.596Z,100831.79
2023-08-13T15:36:15.853Z,100830.70
2023-08-13T15:38:48.372Z,100832.04
2023-08-13T15:41:21.140Z,100828.98
2023-08-13T15:43:53.715Z,100828.86
2023-08-13T15:46:28.340Z,100826.61
2023-08-13T15:49:03.486Z,100825.90
2023-08-13T15:51:35.760Z,100821.52
2023-08-13T15:54:09.940Z,100819.02
2023-08-13T15:56:42.683Z,100821.92
2023-08-13T15:59:15.380Z,100819.58
2023-08-13T16:01:50.717Z,100816.87
2023-08-13T16:04:21.569Z,100800.27
2023-08-13T16:06:53.985Z,100810.88
2023-08-13T16:09:26.437Z,100811.23
2023-08-13T16:11:58.671Z,100810.08
2023-08-13T16:14:31.385Z,100807.39
2023-08-13T16:17:04.181Z,100799.13
2023-08-13T16:19:38.220Z,100812.21
2023-08-13T16:22:10.511Z,100807.36
2023-08-13T16:24:42.672Z,100805.42
2023-08-13T16:27:14.880Z,100811.76
2023-08-13T16:29:47.726Z,100812.45
2023-08-13T16:32:29.552Z,100800.43
2023-08-13T16:35:03.124Z,100810.13
2023-08-13T16:37:36.657Z,100811.36
2023-08-13T16:40:11.287Z,100808.91
2023-08-13T16:42:55.294Z,100812.41
2023-08-13T16:45:35.720Z,100815.44
2023-08-13T16:48:08.743Z,100813.84
2023-08-13T16:50:41.363Z,100813.44
2023-08-13T16:53:13.549Z,100811.48
2023-08-13T16:55:46.040Z,100805.08
2023-08-13T16:58:18.879Z,100808.21
2023-08-13T17:00:51.683Z,100811.09
2023-08-13T17:03:24.637Z,100810.94
2023-08-13T17:05:57.206Z,100811.76
2023-08-13T17:08:29.465Z,100802.91
2023-08-13T17:11:02.067Z,100813.90
2023-08-13T17:13:34.353Z,100812.89
2023-08-13T17:16:09.621Z,100804.58
2023-08-13T17:18:42.152Z,100815.94
2023-08-13T17:21:17.204Z,100811.61
2023-08-13T17:23:49.459Z,100808.99
2023-08-13T17:26:22.357Z,100808.98
2023-08-13T17:28:54.947Z,100812.16
2023-08-13T17:31:27.613Z,100813.02
2023-08-13T17:34:00.280Z,100816.98
2023-08-13T17:36:32.588Z,100814.02
2023-08-13T17:39:04.974Z,100817.80
2023-08-13T17:41:37.518Z,100816.83
2023-08-13T17:44:10.496Z,100814.79
2023-08-13T17:46:42.951Z,100810.75
2023-08-13T17:49:15.274Z,100822.75
2023-08-13T17:51:47.590Z,100825.68
2023-08-13T17:54:21.528Z,100829.42
2023-08-13T17:56:54.033Z,100830.23
2023-08-13T17:59:27.314Z,100815.21
2023-08-13T18:02:01.482Z,100828.30
2023-08-13T18:04:34.018Z,100833.56
2023-08-13T18:07:06.546Z,100834.80
2023-08-13T18:09:39.019Z,100836.98
2023-08-13T18:12:12.499Z,100840.11
2023-08-13T18:14:44.819Z,100841.54
2023-08-13T18:17:17.380Z,100843.80
2023-08-13T18:19:50.652Z,100843.55
2023-08-13T18:22:23.233Z,100844.86
2023-08-13T18:24:56.482Z,100842.56
2023-08-13T18:27:28.993Z,100843.74
2023-08-13T18:30:01.492Z,100841.35
2023-08-13T18:32:34.074Z,100843.20
2023-08-13T18:35:07.368Z,100844.09
2023-08-13T18:37:39.582Z,100845.27
2023-08-13T18:40:13.137Z,100848.57
2023-08-13T18:42:45.561Z,100833.57
2023-08-13T18:45:18.372Z,100846.60
2023-08-13T18:47:50.757Z,100849.08
2023-08-13T18:50:23.178Z,100847.86
2023-08-13T18:52:57.212Z,100849.30
2023-08-13T18:55:29.712Z,100853.64
2023-08-13T18:58:02.729Z,100853.40
2023-08-13T19:00:35.633Z,100859.84
2023-08-13T19:03:08.535Z,100864.98
2023-08-13T19:05:44.026Z,100862.89
2023-08-13T19:08:17.419Z,100866.77
2023-08-13T19:10:51.227Z,100873.63
2023-08-13T19:13:29.911Z,100872.92
2023-08-13T19:16:04.285Z,100871.39
2023-08-13T19:18:41.837Z,100874.09
2023-08-13T19:21:19.517Z,100874.42
2023-08-13T19:23:54.005Z,100875.56
2023-08-13T19:26:28.122Z,100877.97
2023-08-13T19:29:01.033Z,100882.51
2023-08-13T19:31:38.407Z,100887.23
2023-08-13T19:34:12.329Z,100888.91
2023-08-13T19:36:48.161Z,100894.66
2023-08-13T19:39:23.195Z,100892.31
2023-08-13T19:41:55.233Z,100888.97
2023-08-13T19:44:37.779Z,100874.22
2023-08-13T19:47:12.724Z,100892.11
2023-08-13T19:49:44.919Z,100884.02
2023-08-13T19:52:17.409Z,100881.94
2023-08-13T19:54:50.325Z,100884.11
2023-08-13T19:57:23.927Z,100882.85
2023-08-13T19:59:57.232Z,100886.39
2023-08-13T20:02:30.690Z,100880.61
2023-08-13T20:05:03.390Z,100881.04
2023-08-13T20:07:36.068Z,100880.62
2023-08-13T20:10:09.247Z,100879.73
2023-08-13T20:12:41.400Z,100881.71
2023-08-13T20:15:14.900Z,100877.64
2023-08-13T20:17:47.310Z,100867.35
2023-08-13T20:20:20.010Z,100876.15
2023-08-13T20:22:52.184Z,100865.83
2023-08-13T20:25:24.712Z,100866.09
2023-08-13T20:27:57.016Z,100872.45
2023-08-13T20:30:29.187Z,100869.91
2023-08-13T20:33:01.953Z,100867.14
2023-08-13T20:35:34.577Z,100863.95
2023-08-13T20:38:07.120Z,100865.12
2023-08-13T20:40:39.374Z,100868.23
2023-08-13T20:43:11.733Z,100876.80
2023-08-13T20:45:44.304Z,100878.77
2023-08-13T20:48:18.841Z,100871.24
2023-08-13T20:50:52.565Z,100874.61
2023-08-13T20:53:24.906Z,100873.41
2023-08-13T20:55:57.261Z,100862.83
2023-08-13T20:58:29.415Z,100863.45
2023-08-13T21:01:01.727Z,100868.45
2023-08-13T21:03:34.278Z,100871.25
2023-08-13T21:06:06.870Z,100857.38
2023-08-13T21:08:39.506Z,100865.69
2023-08-13T21:11:11.870Z,100865.02
2023-08-13T21:13:44.276Z,100864.88
2023-08-13T21:16:16.908Z,100865.71
2023-08-13T21:18:50.237Z,100868.50
2023-08-13T21:21:22.829Z,100865.42
2023-08-13T21:23:56.340Z,100848.38
2023-08-13T21:26:28.818Z,100855.89
2023-08-13T21:29:00.960Z,100858.59
2023-08-13T21:31:33.551Z,100864.61
2023-08-13T21:34:05.858Z,100862.59
2023-08-13T21:36:38.835Z,100861.45
2023-08-13T21:39:12.545Z,100861.23
2023-08-13T21:41:45.514Z,100866.52
2023-08-13T21:44:18.272Z,100871.80
2023-08-13T21:46:51.005Z,100873.89
2023-08-13T21:49:23.908Z,100868.23
2023-08-13T21:51:56.613Z,100872.89
2023-08-13T21:54:29.692Z,100873.30
2023-08-13T21:57:02.581Z,100874.89
2023-08-13T21:59:36.508Z,100872.34
2023-08-13T22:02:10.848Z,100873.90
2023-08-13T22:04:43.246Z,100872.77
2023-08-13T22:07:16.163Z,100873.59
2023-08-13T22:09:49.612Z,100874.75
2023-08-13T22:12:22.291Z,100877.42
2023-08-13T22:14:54.741Z,100869.98
2023-08-13T22:17:27.342Z,100857.61
2023-08-13T22:20:00.502Z,100871.68
2023-08-13T22:22:33.388Z,100876.09
2023-08-13T22:25:06.943Z,100876.99
2023-08-13T22:27:39.711Z,100868.84
2023-08-13T22:30:14.401Z,100881.93
2023-08-13T22:32:46.555Z,100883.92
2023-08-13T22:35:19.240Z,100887.41
2023-08-13T22:37:51.994Z,100889.78
2023-08-13T22:40:25.925Z,100888.85
2023-08-13T22:42:58.999Z,100882.55
2023-08-13T22:45:31.636Z,100875.46
2023-08-13T22:48:04.898Z,100865.98
2023-08-13T22:50:37.479Z,100869.43
2023-08-13T22:53:10.516Z,100872.58
2023-08-13T22:55:42.679Z,100875.09
2023-08-13T22:58:15.132Z,100875.86
2023-08-13T23:00:47.455Z,100874.48
2023-08-13T23:03:21.340Z,100877.56
2023-08-13T23:05:53.509Z,100866.27
2023-08-13T23:08:26.442Z,100877.97
2023-08-13T23:10:59.055Z,100863.46
2023-08-13T23:13:31.295Z,100866.86
2023-08-13T23:16:03.520Z,100861.36
2023-08-13T23:18:35.842Z,100858.88
2023-08-13T23:21:08.250Z,100852.44
2023-08-13T23:23:41.186Z,100857.55
2023-08-13T23:26:13.309Z,100857.67
2023-08-13T23:28:46.473Z,100858.16
2023-08-13T23:31:19.029Z,100853.98
2023-08-13T23:33:51.654Z,100853.20
2023-08-13T23:36:24.374Z,100854.30
2023-08-13T23:38:56.769Z,100855.73
2023-08-13T23:41:29.588Z,100856.34
2023-08-13T23:44:01.724Z,100853.66
2023-08-13T23:46:34.096Z,100839.02
2023-08-13T23:49:06.653Z,100843.24
2023-08-13T23:51:39.415Z,100857.35
2023-08-13T23:54:11.783Z,100852.91
2023-08-13T23:56:43.991Z,100855.18
2023-08-13T23:59:16.388Z,100851.18
